Time;durP1;ratioP1;P1;durP2;ratioP2;P2;SDS_P1;SDS_P2;PMS_P1;PMS_P2;Temp;Humidity;BMP_temperature;BMP_pressure;BME280_temperature;BME280_humidity;BME280_pressure;Samples;Min_cycle;Max_cycle;Signal;HPM_P1;HPM_P2
2022/01/22 00:02:27;;;;;;;8.13;2.80;;;10.90;67.80;;;;;;10539579;28;20226;-88
2022/01/22 00:07:30;;;;;;;5.27;3.50;;;10.70;68.50;;;;;;10520676;28;20287;-88
2022/01/22 00:17:38;;;;;;;4.53;2.90;;;10.70;69.60;;;;;;10539107;28;20193;-88
2022/01/22 00:22:42;;;;;;;5.90;2.97;;;11.20;68.30;;;;;;10503515;28;20255;-88
2022/01/22 00:27:47;;;;;;;5.33;3.13;;;11.50;67.50;;;;;;10538527;28;20223;-88
2022/01/22 00:32:50;;;;;;;5.57;2.73;;;11.40;67.70;;;;;;10504085;28;20587;-88
2022/01/22 00:37:54;;;;;;;5.43;2.57;;;11.30;67.90;;;;;;10520085;28;20260;-88
2022/01/22 00:42:56;;;;;;;2.77;2.10;;;11.50;67.60;;;;;;10520369;28;20205;-88
2022/01/22 00:47:59;;;;;;;2.90;2.23;;;11.30;67.70;;;;;;10520115;28;20231;-88
2022/01/22 00:53:01;;;;;;;7.00;2.90;;;10.80;68.50;;;;;;10503477;28;20574;-87
2022/01/22 00:58:04;;;;;;;3.33;2.43;;;10.80;69.50;;;;;;10519937;28;20202;-88
2022/01/22 01:03:06;;;;;;;3.97;2.63;;;10.10;71.50;;;;;;10519803;28;20202;-88
2022/01/22 01:08:09;;;;;;;5.13;3.13;;;10.70;70.10;;;;;;10519803;28;20584;-88
2022/01/22 01:13:14;;;;;;;4.53;2.60;;;11.00;69.50;;;;;;10503096;28;20259;-88
2022/01/22 01:34:23;;;;;;;3.83;2.93;;;11.00;69.40;;;;;;10526892;28;20201;-88
2022/01/22 01:39:30;;;;;;;3.40;2.20;;;10.90;69.60;;;;;;10510101;28;20641;-88
2022/01/22 01:44:35;;;;;;;2.43;2.20;;;11.00;69.60;;;;;;10526499;28;20202;-88
2022/01/22 01:49:57;;;;;;;3.67;2.67;;;10.70;70.20;;;;;;10544015;28;20251;-88
2022/01/22 01:55:15;;;;;;;6.70;4.10;;;10.90;69.70;;;;;;10526302;28;20274;-88
2022/01/22 02:00:25;;;;;;;6.07;3.00;;;10.10;65.40;;;;;;10525911;28;20619;-88
2022/01/22 02:05:32;;;;;;;6.07;2.83;;;9.90;71.50;;;;;;10525509;28;20226;-88
2022/01/22 02:10:42;;;;;;;4.23;2.83;;;9.90;73.00;;;;;;10525222;28;20198;-88
2022/01/22 02:26:50;;;;;;;5.43;2.60;;;10.10;72.00;;;;;;10524823;28;20225;-88
2022/01/22 02:37:16;;;;;;;4.43;2.50;;;10.30;72.50;;;;;;10524250;28;20209;-88
2022/01/22 02:42:24;;;;;;;4.53;3.20;;;10.70;71.20;;;;;;10524249;28;20271;-88
2022/01/22 02:47:32;;;;;;;4.23;2.70;;;10.70;71.00;;;;;;10523703;28;20283;-88
2022/01/22 02:52:34;;;;;;;6.20;2.67;;;10.70;70.80;;;;;;10507248;28;20550;-88
2022/01/22 02:57:40;;;;;;;2.97;2.13;;;10.80;70.70;;;;;;10524183;28;20571;-88
2022/01/22 03:02:45;;;;;;;3.07;2.47;;;10.80;70.60;;;;;;10507245;28;20616;-88
2022/01/22 03:07:52;;;;;;;3.93;2.70;;;10.60;71.00;;;;;;10522895;28;20632;-88
2022/01/22 03:28:14;;;;;;;3.60;2.53;;;10.70;70.80;;;;;;10522197;28;20229;-88
2022/01/22 03:33:20;;;;;;;4.17;2.30;;;10.70;70.90;;;;;;10522240;28;20203;-88
2022/01/22 03:38:23;;;;;;;4.03;2.20;;;10.70;70.80;;;;;;10521943;28;20206;-89
2022/01/22 03:43:27;;;;;;;3.60;2.53;;;10.70;70.90;;;;;;10505102;28;20711;-88
2022/01/22 03:48:32;;;;;;;3.73;2.60;;;10.70;70.80;;;;;;10521892;28;20229;-88
2022/01/22 03:53:35;;;;;;;3.63;2.70;;;10.80;70.50;;;;;;10521604;28;20206;-89
2022/01/22 03:58:40;;;;;;;3.17;2.47;;;10.90;70.50;;;;;;10521348;28;20201;-89
2022/01/22 04:04:06;;;;;;;2.97;2.00;;;10.70;70.60;;;;;;10539461;28;20205;-89
2022/01/22 04:09:12;;;;;;;3.50;2.10;;;10.60;71.00;;;;;;10520900;28;20214;-89
2022/01/22 04:14:25;;;;;;;2.47;2.10;;;10.80;70.80;;;;;;10520896;28;20235;-89
2022/01/22 04:24:53;;;;;;;3.80;2.20;;;10.70;70.90;;;;;;10508697;28;20294;-90
2022/01/22 04:29:58;;;;;;;3.30;2.13;;;10.70;70.50;;;;;;10520375;28;20308;-90
2022/01/22 04:35:01;;;;;;;4.03;2.20;;;10.80;70.40;;;;;;10520643;28;20244;-90
2022/01/22 04:40:06;;;;;;;4.00;2.60;;;10.90;70.10;;;;;;10520292;28;20620;-90
2022/01/22 04:55:39;;;;;;;3.07;2.30;;;11.00;70.60;;;;;;10543307;28;20598;-90
2022/01/22 05:00:45;;;;;;;4.60;3.10;;;10.30;70.30;;;;;;10528282;28;20202;-90
2022/01/22 05:06:18;;;;;;;2.93;1.90;;;9.90;69.50;;;;;;10527805;28;20221;-90
2022/01/22 05:11:41;;;;;;;4.73;2.63;;;9.90;73.40;;;;;;10514255;28;20343;-90
2022/01/22 05:16:44;;;;;;;3.93;2.43;;;9.70;73.50;;;;;;10527755;28;20206;-90
2022/01/22 05:21:50;;;;;;;3.07;2.07;;;9.50;70.20;;;;;;10527382;28;20201;-90
2022/01/22 05:37:36;;;;;;;3.43;1.97;;;10.60;70.90;;;;;;10551824;28;20593;-90
2022/01/22 05:42:39;;;;;;;3.00;2.00;;;10.80;70.70;;;;;;10545126;28;20191;-90
2022/01/22 05:47:44;;;;;;;1.83;1.63;;;10.30;64.30;;;;;;10526388;28;20247;-90
2022/01/22 05:52:55;;;;;;;4.30;2.07;;;9.70;71.50;;;;;;10526539;28;20201;-89
2022/01/22 06:03:27;;;;;;;3.30;1.73;;;9.90;72.80;;;;;;10525858;28;20258;-90
2022/01/22 06:08:41;;;;;;;3.10;2.07;;;9.30;75.50;;;;;;10525226;28;20217;-90
2022/01/22 06:13:46;;;;;;;3.90;1.90;;;8.80;73.60;;;;;;10525523;28;20202;-90
2022/01/22 06:19:09;;;;;;;2.57;1.70;;;8.60;73.20;;;;;;10543166;28;20262;-90
2022/01/22 06:24:12;;;;;;;3.63;1.80;;;9.50;75.30;;;;;;10524641;28;20206;-90
2022/01/22 06:29:16;;;;;;;3.23;1.83;;;10.10;73.20;;;;;;10524660;28;20229;-90
2022/01/22 06:34:19;;;;;;;2.87;2.17;;;10.10;71.90;;;;;;10524519;28;20206;-91
2022/01/22 06:39:24;;;;;;;2.80;1.97;;;9.60;67.70;;;;;;10524382;28;20217;-90
2022/01/22 06:44:44;;;;;;;2.37;1.77;;;9.80;72.90;;;;;;10555746;28;20206;-90
2022/01/22 06:50:19;;;;;;;3.80;2.20;;;10.00;73.00;;;;;;10541808;28;20275;-90
2022/01/22 06:55:40;;;;;;;1.93;1.60;;;8.30;70.50;;;;;;10553817;28;20564;-91
2022/01/22 07:00:44;;;;;;;4.23;1.97;;;8.00;77.60;;;;;;10523690;28;20255;-90
2022/01/22 07:05:57;;;;;;;7.53;4.30;;;9.00;69.70;;;;;;10523189;28;20206;-91
2022/01/22 07:11:02;;;;;;;7.33;4.10;;;9.30;70.10;;;;;;10523161;28;20649;-90
2022/01/22 07:16:07;;;;;;;4.07;1.87;;;8.50;74.90;;;;;;10505690;28;20228;-90
2022/01/22 07:21:16;;;;;;;2.53;1.60;;;8.90;77.40;;;;;;10522698;28;20206;-90
2022/01/22 07:26:19;;;;;;;3.57;2.17;;;9.30;73.90;;;;;;10522746;28;20213;-91
2022/01/22 07:31:45;;;;;;;2.00;1.70;;;8.30;72.60;;;;;;10530189;28;20290;-89
2022/01/22 07:36:49;;;;;;;3.87;2.43;;;7.20;83.90;;;;;;10505620;28;20748;-90
2022/01/22 07:41:51;;;;;;;4.50;2.73;;;7.30;79.20;;;;;;10522027;28;20202;-90
2022/01/22 07:47:22;;;;;;;3.60;1.83;;;6.90;80.20;;;;;;10330417;28;20283;-90
2022/01/22 07:52:28;;;;;;;7.23;3.43;;;8.00;79.70;;;;;;10313040;28;20596;-90
2022/01/22 07:57:30;;;;;;;3.27;1.80;;;5.60;76.90;;;;;;10329182;28;20241;-90
2022/01/22 08:02:41;;;;;;;4.80;2.50;;;5.50;89.90;;;;;;10329330;28;20205;-90
2022/01/22 08:08:09;;;;;;;3.20;2.40;;;4.70;85.80;;;;;;10328869;28;20321;-90
2022/01/22 08:13:30;;;;;;;5.47;2.23;;;5.50;80.40;;;;;;10341131;28;20201;-90
2022/01/22 08:18:34;;;;;;;2.87;2.20;;;6.70;87.20;;;;;;10328423;28;20267;-90
2022/01/22 08:23:37;;;;;;;4.53;2.57;;;6.60;75.30;;;;;;10473098;28;20675;-90
2022/01/22 08:28:57;;;;;;;4.80;2.90;;;5.40;89.70;;;;;;10520414;28;20225;-89
2022/01/22 08:39:27;;;;;;;3.80;2.17;;;5.60;92.20;;;;;;10520361;28;20251;-90
2022/01/22 08:44:30;;;;;;;3.50;1.83;;;3.50;90.60;;;;;;10503843;28;20206;-89
2022/01/22 08:49:35;;;;;;;3.43;2.40;;;4.90;93.30;;;;;;10520060;28;20225;-89
2022/01/22 08:54:43;;;;;;;3.63;1.60;;;3.70;85.90;;;;;;10520139;28;20198;-88
2022/01/22 08:59:48;;;;;;;2.77;2.30;;;6.40;93.10;;;;;;10520113;28;20255;-89
2022/01/22 09:04:52;;;;;;;8.10;2.70;;;5.60;81.50;;;;;;10519821;28;20571;-89
2022/01/22 09:10:04;;;;;;;5.60;2.57;;;2.70;84.40;;;;;;10538317;28;20310;-89
2022/01/22 09:15:14;;;;;;;3.37;2.50;;;5.10;82.20;;;;;;10538252;28;20605;-90
2022/01/22 09:20:32;;;;;;;4.33;2.10;;;4.30;87.60;;;;;;10503667;28;20201;-89
2022/01/22 09:25:35;;;;;;;9.97;2.90;;;5.40;93.90;;;;;;10519677;28;20750;-89
2022/01/22 09:30:38;;;;;;;6.53;2.90;;;5.50;80.50;;;;;;10537377;28;20271;-90
2022/01/22 09:35:41;;;;;;;6.37;4.23;;;6.00;83.80;;;;;;10518652;28;20259;-89
2022/01/22 09:41:06;;;;;;;4.67;2.90;;;6.20;84.40;;;;;;10522932;28;20267;-88
2022/01/22 09:46:36;;;;;;;6.40;2.87;;;5.40;86.60;;;;;;10528160;28;20243;-89
2022/01/22 09:51:57;;;;;;;6.50;3.20;;;6.20;84.60;;;;;;10538870;28;20563;-88
2022/01/22 09:57:15;;;;;;;4.40;2.40;;;5.80;81.30;;;;;;10525848;28;20262;-88
2022/01/22 10:02:23;;;;;;;8.60;2.87;;;6.80;86.60;;;;;;10527295;28;20633;-90
2022/01/22 10:07:27;;;;;;;4.07;3.00;;;6.20;81.10;;;;;;10509028;28;20213;-89
2022/01/22 10:12:50;;;;;;;3.50;2.23;;;6.00;76.90;;;;;;10525603;28;20246;-89
2022/01/22 10:17:57;;;;;;;2.90;2.53;;;7.00;78.10;;;;;;10543600;28;20197;-88
2022/01/22 10:23:23;;;;;;;12.07;4.93;;;7.30;75.70;;;;;;10543172;28;20206;-88
2022/01/22 10:28:27;;;;;;;4.53;2.83;;;6.30;88.50;;;;;;10543021;28;20225;-90
2022/01/22 10:33:32;;;;;;;3.90;2.40;;;5.80;91.40;;;;;;10525131;28;20194;-89
2022/01/22 10:38:54;;;;;;;3.90;2.27;;;4.10;91.70;;;;;;10542682;28;20677;-89
2022/01/22 10:43:59;;;;;;;4.23;1.97;;;5.30;95.20;;;;;;10507929;28;20223;-89
2022/01/22 10:49:09;;;;;;;6.77;3.30;;;6.30;89.00;;;;;;10525005;28;20225;-89
2022/01/22 10:54:13;;;;;;;6.67;3.33;;;8.00;72.60;;;;;;10523814;28;20620;-88
2022/01/22 10:59:18;;;;;;;3.03;1.70;;;7.00;74.30;;;;;;10541943;28;20613;-88
2022/01/22 11:04:22;;;;;;;2.57;1.87;;;8.10;84.00;;;;;;10541663;28;20197;-88
2022/01/22 11:09:27;;;;;;;5.33;2.73;;;6.20;86.10;;;;;;10541610;28;20239;-88
2022/01/22 11:14:32;;;;;;;3.20;2.40;;;5.40;73.30;;;;;;10541743;28;20185;-89
2022/01/22 11:19:37;;;;;;;12.07;5.00;;;6.30;85.80;;;;;;10541144;28;20202;-88
2022/01/22 11:24:41;;;;;;;13.57;5.70;;;4.50;75.30;;;;;;10522893;28;20197;-90
2022/01/22 11:29:52;;;;;;;14.80;5.53;;;6.00;78.20;;;;;;10540589;28;20251;-89
2022/01/22 11:35:01;;;;;;;8.23;4.27;;;5.00;82.20;;;;;;10522517;28;20194;-90
2022/01/22 11:40:18;;;;;;;11.73;3.77;;;5.10;81.90;;;;;;10522292;28;20244;-88
2022/01/22 11:45:31;;;;;;;10.63;3.43;;;4.80;80.40;;;;;;10521879;28;20266;-88
2022/01/22 11:50:34;;;;;;;10.03;4.50;;;6.10;74.70;;;;;;10521482;28;20251;-88
2022/01/22 11:55:37;;;;;;;12.57;5.23;;;5.50;80.10;;;;;;10522028;28;20186;-87
2022/01/22 12:00:43;;;;;;;4.60;2.53;;;5.80;73.00;;;;;;10540125;28;20239;-88
2022/01/22 12:05:54;;;;;;;5.33;2.30;;;6.00;82.10;;;;;;10522221;28;20255;-87
2022/01/22 12:16:06;;;;;;;3.30;1.87;;;7.00;90.40;;;;;;10539533;28;20197;-87
2022/01/22 12:26:39;;;;;;;5.23;2.70;;;4.90;75.50;;;;;;10539626;28;20193;-87
2022/01/22 12:32:04;;;;;;;4.40;2.83;;;6.00;75.60;;;;;;10539369;28;20639;-87
2022/01/22 12:37:18;;;;;;;5.73;2.50;;;7.00;83.70;;;;;;10539248;28;20209;-87
2022/01/22 12:42:32;;;;;;;4.43;2.33;;;4.90;94.10;;;;;;10539407;28;20197;-87
2022/01/22 12:47:37;;;;;;;6.80;4.00;;;4.60;93.90;;;;;;10539313;28;20209;-88
2022/01/22 12:52:45;;;;;;;9.23;3.17;;;5.60;81.80;;;;;;10520879;28;20201;-87
2022/01/22 12:57:48;;;;;;;6.07;2.43;;;5.70;76.10;;;;;;10520776;28;20227;-88
2022/01/22 13:02:54;;;;;;;4.93;2.47;;;4.30;69.10;;;;;;10520909;28;20250;-87
2022/01/22 13:08:01;;;;;;;8.53;2.83;;;5.30;83.20;;;;;;10521077;28;20236;-87
2022/01/22 13:13:22;;;;;;;4.80;2.67;;;3.80;79.70;;;;;;10536400;28;20198;-88
2022/01/22 13:18:24;;;;;;;4.17;2.13;;;5.60;83.20;;;;;;10546663;28;20197;-87
2022/01/22 13:23:27;;;;;;;3.90;2.30;;;4.90;76.50;;;;;;10546365;28;20694;-88
2022/01/22 13:28:34;;;;;;;5.10;2.03;;;5.40;90.70;;;;;;10546134;28;20230;-88
2022/01/22 13:33:55;;;;;;;3.30;1.70;;;4.70;82.80;;;;;;10527650;28;20539;-87
2022/01/22 13:49:38;;;;;;;4.53;1.73;;;6.90;79.90;;;;;;10498924;28;20636;-87
2022/01/22 13:54:50;;;;;;;2.97;2.23;;;6.20;75.40;;;;;;10482162;28;20206;-87
2022/01/22 13:59:55;;;;;;;3.00;1.87;;;4.50;78.50;;;;;;10482392;28;20259;-87
2022/01/22 14:04:59;;;;;;;6.23;3.97;;;7.10;75.90;;;;;;10480726;28;20206;-87
2022/01/22 14:10:24;;;;;;;12.67;7.47;;;6.80;75.70;;;;;;10498085;28;20336;-88
2022/01/22 14:15:30;;;;;;;6.03;3.93;;;5.50;77.10;;;;;;10481006;28;20613;-88
2022/01/22 14:20:34;;;;;;;9.30;5.37;;;4.30;91.50;;;;;;10481594;28;20240;-88
2022/01/22 14:25:56;;;;;;;11.57;6.90;;;3.40;91.80;;;;;;10502402;28;20205;-88
2022/01/22 14:30:58;;;;;;;7.10;6.17;;;4.30;80.70;;;;;;10543661;28;20599;-88
2022/01/22 14:36:03;;;;;;;3.90;2.87;;;3.60;77.70;;;;;;10525015;28;20279;-88
2022/01/22 14:46:53;;;;;;;2.93;2.30;;;5.50;71.00;;;;;;10524837;28;20231;-88
2022/01/22 14:51:57;;;;;;;3.17;2.17;;;7.30;87.70;;;;;;10524705;28;20782;-88
2022/01/22 14:57:01;;;;;;;3.67;3.07;;;9.10;78.00;;;;;;10542792;28;20186;-88
2022/01/22 15:02:04;;;;;;;4.00;2.70;;;8.80;78.30;;;;;;10524830;28;20198;-88
2022/01/22 15:07:10;;;;;;;5.93;2.57;;;10.00;75.00;;;;;;10524052;28;20573;-86
2022/01/22 15:12:16;;;;;;;4.53;2.93;;;10.60;73.10;;;;;;10541735;28;20218;-89
2022/01/22 15:22:23;;;;;;;3.40;2.43;;;11.20;70.90;;;;;;10541345;28;20198;-87
2022/01/22 15:27:26;;;;;;;4.40;2.20;;;11.20;70.40;;;;;;10541146;28;20186;-87
2022/01/22 15:37:47;;;;;;;3.60;2.70;;;11.40;69.80;;;;;;10540042;28;20539;-87
2022/01/22 15:42:50;;;;;;;4.37;2.03;;;11.30;69.70;;;;;;10540503;28;20195;-87
2022/01/22 15:47:53;;;;;;;4.57;2.97;;;11.30;69.80;;;;;;10540124;28;20197;-87
2022/01/22 15:52:56;;;;;;;4.20;2.53;;;11.40;69.70;;;;;;10539872;28;20223;-87
2022/01/22 15:57:58;;;;;;;5.27;3.20;;;11.50;69.10;;;;;;10521981;28;20239;-87
2022/01/22 16:03:03;;;;;;;5.60;3.27;;;11.40;69.10;;;;;;10539687;28;20194;-88
2022/01/22 16:08:06;;;;;;;4.93;2.97;;;11.40;69.20;;;;;;10539235;28;20193;-87
2022/01/22 16:13:29;;;;;;;5.47;3.43;;;11.40;69.10;;;;;;10539282;28;20190;-88
2022/01/22 16:18:31;;;;;;;4.37;3.07;;;11.40;69.90;;;;;;10520958;28;20555;-88
2022/01/22 16:23:33;;;;;;;5.97;3.70;;;11.50;68.80;;;;;;10521161;28;20244;-88
2022/01/22 16:28:36;;;;;;;6.00;4.03;;;11.50;68.80;;;;;;10521280;28;20304;-88
2022/01/22 16:33:39;;;;;;;7.20;4.33;;;11.50;68.70;;;;;;10520598;28;20203;-88
2022/01/22 16:38:43;;;;;;;7.17;4.00;;;11.70;68.40;;;;;;10520603;28;20236;-88
2022/01/22 16:43:50;;;;;;;8.23;4.97;;;11.50;68.60;;;;;;10520885;28;20202;-88
2022/01/22 16:59:37;;;;;;;9.13;5.47;;;11.50;68.70;;;;;;10547235;28;20190;-88
2022/01/22 17:04:43;;;;;;;8.73;4.67;;;11.50;68.80;;;;;;10528325;28;20232;-88
2022/01/22 17:14:52;;;;;;;10.13;5.27;;;11.40;69.00;;;;;;10546284;28;20240;-88
2022/01/22 17:19:54;;;;;;;8.47;5.50;;;11.40;70.00;;;;;;10546150;28;20256;-88
2022/01/22 17:24:57;;;;;;;11.03;6.10;;;11.20;69.60;;;;;;10528197;28;20202;-88
2022/01/22 17:29:59;;;;;;;11.23;6.43;;;11.10;69.80;;;;;;10511086;28;20226;-89
2022/01/22 17:35:02;;;;;;;11.47;6.97;;;11.20;69.70;;;;;;10527682;28;20194;-89
2022/01/22 17:40:07;;;;;;;11.57;7.40;;;11.10;69.70;;;;;;10527429;28;20195;-89
2022/01/22 17:45:10;;;;;;;10.33;6.93;;;11.20;69.80;;;;;;10526719;28;20214;-88
2022/01/22 17:50:12;;;;;;;16.93;6.67;;;11.10;69.90;;;;;;10544830;28;20624;-88
2022/01/22 17:55:16;;;;;;;13.23;7.83;;;11.20;69.70;;;;;;10544538;28;20194;-89
2022/01/22 18:00:19;;;;;;;14.43;8.10;;;11.20;69.60;;;;;;10544420;28;20557;-89
2022/01/22 18:05:21;;;;;;;13.30;8.03;;;11.30;69.60;;;;;;10527513;28;20199;-90
2022/01/22 18:10:25;;;;;;;13.90;7.27;;;11.30;69.40;;;;;;10525662;28;20225;-90
2022/01/22 18:15:27;;;;;;;13.57;7.87;;;11.30;69.20;;;;;;10544110;28;20197;-90
2022/01/22 18:20:30;;;;;;;14.77;7.40;;;11.20;69.60;;;;;;10525831;28;20249;-90
2022/01/22 18:25:32;;;;;;;14.00;8.13;;;11.10;69.90;;;;;;10543379;28;20197;-90
2022/01/22 18:30:36;;;;;;;14.67;7.77;;;11.30;69.30;;;;;;10543458;28;20227;-88
2022/01/22 18:35:39;;;;;;;13.97;7.77;;;11.50;68.70;;;;;;10542991;28;20561;-89
2022/01/22 18:40:43;;;;;;;14.27;8.60;;;11.20;69.30;;;;;;10508270;28;20201;-89
2022/01/22 18:45:51;;;;;;;13.80;8.13;;;11.30;69.20;;;;;;10542822;28;20194;-89
2022/01/22 18:50:53;;;;;;;14.30;8.57;;;11.30;69.20;;;;;;10524254;28;20226;-87
2022/01/22 18:55:56;;;;;;;14.47;9.10;;;11.10;69.60;;;;;;10541549;28;20621;-89
2022/01/22 19:01:01;;;;;;;13.90;7.87;;;10.90;70.20;;;;;;10523839;28;20247;-90
2022/01/22 19:06:04;;;;;;;15.83;9.60;;;10.80;70.80;;;;;;10523096;28;20206;-90
2022/01/22 19:11:06;;;;;;;17.50;10.00;;;10.80;70.60;;;;;;10523099;28;20230;-89
2022/01/22 19:16:09;;;;;;;14.00;8.40;;;10.80;70.60;;;;;;10540860;28;20239;-89
2022/01/22 19:21:19;;;;;;;19.17;9.67;;;10.60;71.30;;;;;;10541062;28;20198;-90
2022/01/22 19:31:33;;;;;;;17.07;8.90;;;10.80;70.80;;;;;;10540647;28;20252;-90
2022/01/22 19:36:37;;;;;;;18.73;9.17;;;10.80;71.00;;;;;;10540466;28;20565;-90
2022/01/22 19:41:43;;;;;;;18.00;10.40;;;10.90;70.80;;;;;;10540474;28;20201;-90
2022/01/22 19:46:46;;;;;;;16.37;8.90;;;11.00;71.00;;;;;;10540272;28;20193;-90
2022/01/22 19:51:48;;;;;;;16.70;9.23;;;10.90;70.70;;;;;;10522007;28;20243;-90
2022/01/22 19:56:51;;;;;;;18.40;9.27;;;10.80;71.10;;;;;;10539702;28;20198;-91
2022/01/22 20:01:53;;;;;;;13.70;9.30;;;10.70;71.10;;;;;;10539527;28;20228;-90
2022/01/22 20:06:56;;;;;;;19.80;10.43;;;10.80;71.10;;;;;;10521222;28;20235;-90
2022/01/22 20:11:59;;;;;;;18.53;10.40;;;10.80;71.00;;;;;;10539413;28;20221;-90
2022/01/22 20:17:02;;;;;;;20.93;10.70;;;11.00;70.70;;;;;;10504515;28;20267;-90
2022/01/22 20:22:05;;;;;;;17.03;10.13;;;11.10;70.20;;;;;;10520881;28;20209;-91
2022/01/22 20:27:25;;;;;;;16.23;9.37;;;11.10;70.20;;;;;;10520205;28;20255;-90
2022/01/22 20:32:27;;;;;;;18.57;9.27;;;11.00;70.30;;;;;;10538808;28;20221;-90
2022/01/22 20:37:30;;;;;;;19.83;10.93;;;11.10;70.30;;;;;;10520923;28;20194;-90
2022/01/22 20:42:32;;;;;;;18.73;9.63;;;11.10;70.30;;;;;;10538790;28;20194;-90
2022/01/22 20:47:57;;;;;;;13.73;9.50;;;11.00;70.40;;;;;;10538694;28;20284;-90
2022/01/22 20:53:04;;;;;;;15.47;9.50;;;11.10;70.20;;;;;;10538313;28;20266;-90
2022/01/22 20:58:17;;;;;;;17.43;9.77;;;11.10;70.10;;;;;;10537625;28;20202;-90
2022/01/22 21:03:22;;;;;;;16.67;9.60;;;11.00;70.30;;;;;;10520198;28;20797;-90
2022/01/22 21:08:31;;;;;;;17.27;8.87;;;11.00;70.50;;;;;;10520189;28;20232;-90
2022/01/22 21:13:34;;;;;;;18.47;10.10;;;10.90;70.50;;;;;;10519795;28;20227;-90
2022/01/22 21:18:38;;;;;;;14.00;9.50;;;10.90;70.70;;;;;;10537924;28;20720;-90
2022/01/22 21:23:40;;;;;;;16.47;9.10;;;10.90;70.60;;;;;;10519819;28;20194;-90
2022/01/22 21:28:43;;;;;;;16.43;9.37;;;11.20;69.90;;;;;;10519796;28;20225;-90
2022/01/22 21:33:54;;;;;;;15.50;9.83;;;11.30;69.40;;;;;;10519723;28;20589;-90
2022/01/22 21:44:06;;;;;;;16.53;9.20;;;11.40;69.20;;;;;;10545304;28;20233;-90
2022/01/22 21:49:08;;;;;;;15.27;9.27;;;11.30;69.30;;;;;;10544922;28;20262;-89
2022/01/22 21:54:11;;;;;;;15.77;10.10;;;11.30;69.40;;;;;;10526322;28;20709;-89
2022/01/22 21:59:13;;;;;;;19.83;10.30;;;11.30;69.50;;;;;;10526716;28;20570;-90
2022/01/22 22:04:16;;;;;;;16.70;9.63;;;11.30;69.30;;;;;;10544272;28;20542;-90
2022/01/22 22:09:20;;;;;;;18.07;9.90;;;11.30;69.30;;;;;;10543268;28;20628;-89
2022/01/22 22:14:22;;;;;;;21.33;11.77;;;11.20;69.60;;;;;;10525662;28;20251;-90
2022/01/22 22:19:26;;;;;;;17.63;10.60;;;11.20;69.60;;;;;;10544010;28;20189;-89
2022/01/22 22:24:28;;;;;;;15.87;9.57;;;11.30;69.60;;;;;;10543582;28;20195;-90
2022/01/22 22:29:31;;;;;;;15.87;10.07;;;11.30;69.30;;;;;;10524950;28;20251;-90
2022/01/22 22:34:33;;;;;;;19.00;11.40;;;11.30;69.50;;;;;;10543172;28;20542;-89
2022/01/22 22:39:36;;;;;;;16.33;10.30;;;11.10;69.60;;;;;;10542964;28;20254;-90
2022/01/22 22:44:39;;;;;;;18.53;10.83;;;11.00;70.10;;;;;;10524232;28;20199;-90
2022/01/22 22:49:41;;;;;;;20.77;11.57;;;10.90;70.20;;;;;;10542522;28;20194;-90
2022/01/22 22:54:43;;;;;;;19.63;10.83;;;10.70;70.30;;;;;;10523776;28;20207;-90
2022/01/22 22:59:46;;;;;;;17.53;10.23;;;10.50;71.70;;;;;;10524264;28;20190;-90
2022/01/22 23:04:48;;;;;;;22.07;11.07;;;10.60;71.60;;;;;;10523901;28;20723;-90
2022/01/22 23:09:51;;;;;;;20.33;10.77;;;10.70;70.90;;;;;;10541687;28;20189;-90
2022/01/22 23:14:53;;;;;;;19.87;11.03;;;10.80;71.00;;;;;;10541562;28;20242;-89
2022/01/22 23:25:41;;;;;;;17.50;11.00;;;10.70;71.10;;;;;;10541069;28;20189;-89
2022/01/22 23:30:54;;;;;;;19.37;10.67;;;10.80;71.00;;;;;;10522400;28;20234;-90
2022/01/22 23:47:01;;;;;;;17.83;10.83;;;11.00;70.50;;;;;;10540416;28;20223;-89
2022/01/22 23:57:33;;;;;;;20.73;10.97;;;11.00;70.40;;;;;;10521753;28;20325;-90
